createdAt,value
2018-06-05T00:02:20.615Z,25.80
2018-06-05T00:04:48.867Z,24.80
2018-06-05T00:07:17.133Z,25.70
2018-06-05T00:09:45.350Z,26.03
2018-06-05T00:12:13.598Z,29.73
2018-06-05T00:14:41.836Z,27.17
2018-06-05T00:17:10.072Z,24.90
2018-06-05T00:19:38.328Z,23.73
2018-06-05T00:22:06.563Z,28.60
2018-06-05T00:24:34.803Z,27.23
2018-06-05T00:27:03.004Z,28.87
2018-06-05T00:29:31.230Z,27.63
2018-06-05T00:31:59.436Z,33.10
2018-06-05T00:34:27.645Z,28.60
2018-06-05T00:36:55.936Z,35.97
2018-06-05T00:39:24.137Z,27.30
2018-06-05T00:41:52.331Z,34.37
2018-06-05T00:44:20.553Z,31.60
2018-06-05T00:46:48.748Z,32.83
2018-06-05T00:49:16.927Z,27.80
2018-06-05T00:51:56.572Z,28.80
2018-06-05T00:54:24.824Z,29.67
2018-06-05T00:56:53.068Z,27.87
2018-06-05T00:59:21.301Z,27.50
2018-06-05T01:01:49.537Z,31.73
2018-06-05T01:04:17.766Z,32.20
2018-06-05T01:06:45.977Z,28.93
2018-06-05T01:09:14.172Z,30.70
2018-06-05T01:11:42.400Z,31.97
2018-06-05T01:14:10.625Z,30.23
2018-06-05T01:16:38.855Z,32.63
2018-06-05T01:19:07.080Z,28.90
2018-06-05T01:21:35.290Z,30.60
2018-06-05T01:24:03.575Z,29.63
2018-06-05T01:26:31.807Z,31.13
2018-06-05T01:29:00.021Z,38.60
2018-06-05T01:31:28.206Z,29.63
2018-06-05T01:33:56.443Z,29.30
2018-06-05T01:36:24.771Z,30.53
2018-06-05T01:38:52.974Z,28.17
2018-06-05T01:41:21.216Z,31.60
2018-06-05T01:43:49.437Z,29.77
2018-06-05T01:46:17.646Z,30.60
2018-06-05T01:48:45.857Z,29.43
2018-06-05T01:51:14.032Z,30.43
2018-06-05T01:53:42.417Z,31.23
2018-06-05T01:56:10.658Z,29.43
2018-06-05T01:58:38.835Z,33.60
2018-06-05T02:01:07.082Z,28.47
2018-06-05T02:03:35.270Z,34.00
2018-06-05T02:06:03.500Z,31.40
2018-06-05T02:08:31.710Z,34.50
2018-06-05T02:10:59.964Z,29.53
2018-06-05T02:13:28.269Z,29.47
2018-06-05T02:15:56.468Z,34.17
2018-06-05T02:18:24.749Z,29.27
2018-06-05T02:20:52.960Z,28.63
2018-06-05T02:23:21.202Z,30.47
2018-06-05T02:25:49.431Z,32.80
2018-06-05T02:28:17.712Z,33.50
2018-06-05T02:30:45.964Z,38.57
2018-06-05T02:33:14.217Z,30.50
2018-06-05T02:35:42.445Z,35.17
2018-06-05T02:38:10.759Z,32.90
2018-06-05T02:40:38.952Z,34.80
2018-06-05T02:43:07.175Z,34.00
2018-06-05T02:45:35.526Z,34.53
2018-06-05T02:48:03.745Z,36.20
2018-06-05T02:50:31.939Z,37.10
2018-06-05T02:53:00.181Z,30.70
2018-06-05T02:55:28.450Z,34.80
2018-06-05T02:58:03.623Z,34.20
2018-06-05T03:00:31.809Z,29.77
2018-06-05T03:03:00.097Z,33.47
2018-06-05T03:05:28.430Z,32.63
2018-06-05T03:07:56.712Z,28.67
2018-06-05T03:10:24.945Z,27.90
2018-06-05T03:12:58.754Z,31.00
2018-06-05T03:15:27.020Z,33.73
2018-06-05T03:17:55.274Z,35.87
2018-06-05T03:20:23.491Z,31.13
2018-06-05T03:22:51.695Z,32.90
2018-06-05T03:25:19.999Z,32.13
2018-06-05T03:27:48.273Z,36.13
2018-06-05T03:30:16.592Z,32.10
2018-06-05T03:32:44.838Z,31.70
2018-06-05T03:35:13.149Z,38.30
2018-06-05T03:37:41.407Z,33.10
2018-06-05T03:40:09.575Z,31.50
2018-06-05T03:42:37.766Z,32.57
2018-06-05T03:45:06.231Z,32.57
2018-06-05T03:47:34.448Z,32.07
2018-06-05T03:50:02.696Z,33.03
2018-06-05T03:52:30.933Z,28.40
2018-06-05T03:54:59.170Z,26.90
2018-06-05T03:57:27.486Z,36.50
2018-06-05T03:59:55.709Z,42.13
2018-06-05T04:02:23.956Z,28.50
2018-06-05T04:04:52.299Z,28.67
2018-06-05T04:07:20.553Z,32.20
2018-06-05T04:09:48.787Z,29.23
2018-06-05T04:12:17.040Z,27.33
2018-06-05T04:14:45.275Z,27.70
2018-06-05T04:17:13.501Z,26.03
2018-06-05T04:19:41.672Z,24.13
2018-06-05T04:22:09.950Z,22.57
2018-06-05T04:24:38.200Z,22.77
2018-06-05T04:27:06.534Z,25.60
2018-06-05T04:29:34.695Z,24.90
2018-06-05T04:32:02.927Z,27.97
2018-06-05T04:34:31.173Z,23.50
2018-06-05T04:36:59.457Z,24.90
2018-06-05T04:39:27.705Z,23.80
2018-06-05T04:41:55.924Z,24.67
2018-06-05T04:44:24.153Z,23.63
2018-06-05T04:46:52.381Z,26.90
2018-06-05T04:49:20.615Z,38.13
2018-06-05T04:51:48.888Z,28.20
2018-06-05T04:54:17.148Z,23.97
2018-06-05T04:56:45.795Z,23.07
2018-06-05T04:59:14.038Z,21.97
2018-06-05T05:01:42.304Z,25.77
2018-06-05T05:04:10.513Z,25.80
2018-06-05T05:06:38.737Z,29.40
2018-06-05T05:09:07.522Z,24.40
2018-06-05T05:11:36.131Z,26.00
2018-06-05T05:14:04.385Z,29.57
2018-06-05T05:16:32.686Z,36.33
2018-06-05T05:19:00.911Z,23.83
2018-06-05T05:21:29.140Z,22.80
2018-06-05T05:23:57.405Z,23.60
2018-06-05T05:26:25.665Z,30.67
2018-06-05T05:28:53.851Z,25.77
2018-06-05T05:31:22.112Z,19.13
2018-06-05T05:33:50.288Z,27.73
2018-06-05T05:36:18.544Z,22.10
2018-06-05T05:38:46.734Z,25.50
2018-06-05T05:41:14.968Z,26.37
2018-06-05T05:43:43.198Z,26.30
2018-06-05T05:46:11.493Z,23.20
2018-06-05T05:48:39.664Z,21.03
2018-06-05T05:51:07.895Z,27.27
2018-06-05T05:53:36.079Z,21.70
2018-06-05T05:56:04.322Z,22.43
2018-06-05T05:58:32.557Z,34.17
2018-06-05T06:01:00.765Z,27.50
2018-06-05T06:03:28.992Z,19.87
2018-06-05T06:05:57.288Z,20.27
2018-06-05T06:08:25.507Z,25.00
2018-06-05T06:10:53.894Z,25.53
2018-06-05T06:13:22.070Z,19.33
2018-06-05T06:15:50.256Z,21.43
2018-06-05T06:18:18.493Z,24.73
2018-06-05T06:20:46.746Z,23.43
2018-06-05T06:23:14.965Z,22.00
2018-06-05T06:25:43.212Z,24.83
2018-06-05T06:28:11.482Z,21.20
2018-06-05T06:30:39.676Z,25.00
2018-06-05T06:33:07.900Z,23.03
2018-06-05T06:35:36.091Z,25.50
2018-06-05T06:38:04.347Z,26.50
2018-06-05T06:40:32.594Z,24.63
2018-06-05T06:43:00.825Z,26.70
2018-06-05T06:45:29.097Z,23.47
2018-06-05T06:47:57.356Z,22.37
2018-06-05T06:50:25.575Z,31.03
2018-06-05T06:52:53.788Z,27.43
2018-06-05T06:55:22.031Z,26.10
2018-06-05T06:57:50.226Z,20.23
2018-06-05T07:00:18.453Z,27.00
2018-06-05T07:02:46.692Z,23.90
2018-06-05T07:05:14.902Z,19.60
2018-06-05T07:07:43.138Z,20.23
2018-06-05T07:10:11.441Z,25.33
2018-06-05T07:12:39.667Z,22.80
2018-06-05T07:15:07.876Z,23.00
2018-06-05T07:17:36.169Z,22.03
2018-06-05T07:20:04.376Z,23.13
2018-06-05T07:22:32.738Z,21.43
2018-06-05T07:25:01.043Z,34.40
2018-06-05T07:27:29.317Z,30.57
2018-06-05T07:29:57.505Z,24.20
2018-06-05T07:32:25.743Z,18.37
2018-06-05T07:34:54.009Z,23.83
2018-06-05T07:37:22.217Z,27.53
2018-06-05T07:39:50.460Z,25.53
2018-06-05T07:42:18.705Z,21.70
2018-06-05T07:44:46.916Z,30.30
2018-06-05T07:47:15.205Z,21.20
2018-06-05T07:49:43.455Z,22.57
2018-06-05T07:52:11.721Z,22.70
2018-06-05T07:54:39.968Z,24.57
2018-06-05T07:57:08.252Z,25.00
2018-06-05T07:59:36.496Z,23.07
2018-06-05T08:02:04.789Z,22.70
2018-06-05T08:04:32.982Z,18.80
2018-06-05T08:07:01.463Z,20.73
2018-06-05T08:09:29.684Z,18.27
2018-06-05T08:11:57.937Z,20.00
2018-06-05T08:14:26.217Z,18.73
2018-06-05T08:16:54.442Z,21.13
2018-06-05T08:19:22.675Z,20.80
2018-06-05T08:21:50.904Z,25.63
2018-06-05T08:24:19.132Z,17.47
2018-06-05T08:26:52.669Z,24.50
2018-06-05T08:29:21.336Z,20.53
2018-06-05T08:31:49.635Z,20.67
2018-06-05T08:34:17.909Z,31.60
2018-06-05T08:36:46.213Z,23.13
2018-06-05T08:39:14.455Z,23.70
2018-06-05T08:41:42.656Z,28.70
2018-06-05T08:44:10.927Z,31.83
2018-06-05T08:46:39.173Z,23.90
2018-06-05T08:49:07.388Z,19.93
2018-06-05T08:51:35.670Z,22.60
2018-06-05T08:54:03.857Z,22.90
2018-06-05T08:56:32.064Z,20.00
2018-06-05T08:59:00.259Z,21.87
2018-06-05T09:01:28.490Z,23.43
2018-06-05T09:03:56.878Z,23.73
2018-06-05T09:06:25.116Z,29.53
2018-06-05T09:08:53.297Z,24.10
2018-06-05T09:11:21.549Z,23.50
2018-06-05T09:13:49.735Z,30.30
2018-06-05T09:16:17.899Z,23.47
2018-06-05T09:18:46.097Z,25.57
2018-06-05T09:21:14.334Z,24.00
2018-06-05T09:23:42.485Z,21.70
2018-06-05T09:26:10.744Z,24.23
2018-06-05T09:28:38.975Z,27.57
2018-06-05T09:31:07.163Z,23.00
2018-06-05T09:33:35.432Z,21.70
2018-06-05T09:36:03.693Z,23.63
2018-06-05T09:38:32.045Z,21.93
2018-06-05T09:41:00.371Z,22.10
2018-06-05T09:43:28.552Z,25.50
2018-06-05T09:45:56.829Z,25.03
2018-06-05T09:48:25.022Z,28.17
2018-06-05T09:50:53.256Z,22.93
2018-06-05T09:53:21.401Z,19.00
2018-06-05T09:55:49.642Z,24.50
2018-06-05T09:58:18.179Z,22.07
2018-06-05T10:00:51.368Z,21.73
2018-06-05T10:03:20.293Z,23.03
2018-06-05T10:05:48.525Z,26.87
2018-06-05T10:08:16.763Z,22.13
2018-06-05T10:10:45.009Z,22.40
2018-06-05T10:13:13.323Z,26.33
2018-06-05T10:15:41.739Z,27.83
2018-06-05T10:18:09.965Z,28.90
2018-06-05T10:20:38.200Z,22.03
2018-06-05T10:23:06.846Z,31.23
2018-06-05T10:25:35.068Z,25.73
2018-06-05T10:28:03.299Z,24.23
2018-06-05T10:30:31.511Z,26.13
2018-06-05T10:32:59.733Z,24.10
2018-06-05T10:35:28.035Z,26.63
2018-06-05T10:37:56.287Z,27.47
2018-06-05T10:40:24.503Z,26.20
2018-06-05T10:42:52.686Z,28.77
2018-06-05T10:45:20.944Z,24.93
2018-06-05T10:47:49.266Z,26.43
2018-06-05T10:50:17.528Z,23.00
2018-06-05T10:52:45.809Z,29.63
2018-06-05T10:55:14.032Z,29.10
2018-06-05T10:57:42.266Z,26.60
2018-06-05T11:00:10.470Z,31.90
2018-06-05T11:02:38.704Z,27.83
2018-06-05T11:05:06.977Z,27.13
2018-06-05T11:07:35.237Z,22.10
2018-06-05T11:10:03.527Z,31.37
2018-06-05T11:12:31.737Z,26.33
2018-06-05T11:14:59.980Z,27.40
2018-06-05T11:17:28.189Z,27.50
2018-06-05T11:19:56.368Z,31.53
2018-06-05T11:22:24.633Z,35.87
2018-06-05T11:24:52.850Z,28.17
2018-06-05T11:27:21.089Z,27.57
2018-06-05T11:29:49.358Z,27.87
2018-06-05T11:32:17.597Z,28.03
2018-06-05T11:34:46.010Z,32.83
2018-06-05T11:37:14.241Z,27.77
2018-06-05T11:39:42.425Z,31.20
2018-06-05T11:42:10.693Z,22.10
2018-06-05T11:44:38.967Z,30.23
2018-06-05T11:47:07.232Z,35.67
2018-06-05T11:49:35.455Z,34.77
2018-06-05T11:52:03.843Z,22.97
2018-06-05T11:54:32.070Z,25.90
2018-06-05T11:57:00.261Z,29.67
2018-06-05T11:59:28.527Z,27.23
2018-06-05T12:01:56.743Z,24.20
2018-06-05T12:04:24.971Z,24.30
2018-06-05T12:06:53.281Z,25.70
2018-06-05T12:09:21.645Z,26.33
2018-06-05T12:11:49.848Z,29.87
2018-06-05T12:14:18.148Z,24.70
2018-06-05T12:16:46.333Z,27.23
2018-06-05T12:19:14.511Z,20.73
2018-06-05T12:21:42.749Z,23.10
2018-06-05T12:24:11.188Z,24.80
2018-06-05T12:26:39.383Z,28.13
2018-06-05T12:29:07.642Z,21.40
2018-06-05T12:31:35.920Z,26.57
2018-06-05T12:34:04.153Z,22.50
2018-06-05T12:36:32.386Z,23.57
2018-06-05T12:39:00.661Z,22.27
2018-06-05T12:41:28.884Z,27.13
2018-06-05T12:43:57.044Z,24.17
2018-06-05T12:46:25.287Z,25.23
2018-06-05T12:48:53.518Z,22.10
2018-06-05T12:51:21.711Z,24.50
2018-06-05T12:53:49.976Z,22.27
2018-06-05T12:56:18.204Z,27.03
2018-06-05T12:58:46.404Z,31.03
2018-06-05T13:01:14.625Z,23.20
2018-06-05T13:03:42.918Z,25.33
2018-06-05T13:06:11.156Z,27.73
2018-06-05T13:08:39.466Z,29.33
2018-06-05T13:11:07.729Z,27.17
2018-06-05T13:13:35.964Z,22.87
2018-06-05T13:16:04.218Z,27.77
2018-06-05T13:18:32.457Z,23.40
2018-06-05T13:21:00.642Z,27.70
2018-06-05T13:23:28.928Z,27.90
2018-06-05T13:25:57.229Z,24.10
2018-06-05T13:28:25.374Z,17.83
2018-06-05T13:30:53.628Z,26.23
2018-06-05T13:33:21.875Z,23.00
2018-06-05T13:35:50.105Z,13.50
2018-06-05T13:38:18.358Z,15.37
2018-06-05T13:40:46.665Z,20.10
2018-06-05T13:43:14.869Z,18.33
2018-06-05T13:45:43.044Z,18.77
2018-06-05T13:48:11.430Z,17.10
2018-06-05T13:50:39.641Z,18.57
2018-06-05T13:53:07.914Z,20.70
2018-06-05T13:55:36.134Z,20.97
2018-06-05T13:58:04.336Z,27.07
2018-06-05T14:00:32.531Z,21.37
2018-06-05T14:03:00.756Z,22.00
2018-06-05T14:05:29.003Z,23.03
2018-06-05T14:07:57.224Z,21.33
2018-06-05T14:10:25.483Z,20.83
2018-06-05T14:12:53.744Z,20.40
2018-06-05T14:15:21.941Z,11.50
2018-06-05T14:17:50.198Z,17.00
2018-06-05T14:20:18.396Z,9.40
2018-06-05T14:22:46.636Z,20.30
2018-06-05T14:25:14.851Z,22.77
2018-06-05T14:27:43.078Z,16.70
2018-06-05T14:30:11.406Z,13.93
2018-06-05T14:32:39.689Z,21.63
2018-06-05T14:35:07.938Z,19.67
2018-06-05T14:37:36.192Z,24.80
2018-06-05T14:40:04.722Z,22.93
2018-06-05T14:42:32.923Z,16.10
2018-06-05T14:45:01.209Z,17.90
2018-06-05T14:47:29.351Z,23.90
2018-06-05T14:49:57.607Z,15.27
2018-06-05T14:52:25.876Z,18.13
2018-06-05T14:54:54.111Z,13.57
2018-06-05T14:57:22.336Z,13.10
2018-06-05T14:59:50.573Z,19.40
2018-06-05T15:02:18.788Z,13.03
2018-06-05T15:04:47.083Z,17.50
2018-06-05T15:07:15.311Z,14.20
2018-06-05T15:09:43.765Z,11.40
2018-06-05T15:12:12.080Z,13.47
2018-06-05T15:14:40.285Z,13.73
2018-06-05T15:17:08.516Z,14.07
2018-06-05T15:19:36.750Z,13.40
2018-06-05T15:22:05.009Z,15.10
2018-06-05T15:24:33.239Z,11.20
2018-06-05T15:27:01.508Z,13.20
2018-06-05T15:29:29.727Z,13.93
2018-06-05T15:31:58.021Z,14.23
2018-06-05T15:34:26.243Z,14.03
2018-06-05T15:36:54.518Z,23.53
2018-06-05T15:39:22.729Z,11.80
2018-06-05T15:41:50.958Z,11.60
2018-06-05T15:44:19.225Z,23.00
2018-06-05T15:46:47.485Z,19.23
2018-06-05T15:49:15.689Z,19.00
2018-06-05T15:51:43.925Z,13.03
2018-06-05T15:54:12.318Z,16.37
2018-06-05T15:56:40.516Z,13.07
2018-06-05T15:59:08.709Z,13.07
2018-06-05T16:01:36.918Z,14.13
2018-06-05T16:04:05.489Z,15.93
2018-06-05T16:06:33.762Z,13.90
2018-06-05T16:09:01.980Z,18.33
2018-06-05T16:11:30.274Z,14.53
2018-06-05T16:13:58.506Z,16.93
2018-06-05T16:16:26.672Z,15.50
2018-06-05T16:18:54.843Z,13.70
2018-06-05T16:21:23.074Z,19.90
2018-06-05T16:23:51.597Z,13.50
2018-06-05T16:26:19.827Z,23.03
2018-06-05T16:28:48.032Z,16.20
2018-06-05T16:31:16.290Z,20.33
2018-06-05T16:33:44.503Z,15.27
2018-06-05T16:36:12.713Z,12.03
2018-06-05T16:38:41.001Z,15.20
2018-06-05T16:41:09.145Z,13.97
2018-06-05T16:43:37.369Z,23.70
2018-06-05T16:46:05.552Z,19.23
2018-06-05T16:48:33.895Z,17.17
2018-06-05T16:51:02.128Z,15.30
2018-06-05T16:53:30.351Z,18.37
2018-06-05T16:55:58.614Z,13.70
2018-06-05T16:58:26.856Z,14.37
2018-06-05T17:00:55.092Z,19.47
2018-06-05T17:03:23.296Z,14.60
2018-06-05T17:05:51.521Z,19.97
2018-06-05T17:08:19.721Z,15.27
2018-06-05T17:10:48.026Z,17.33
2018-06-05T17:13:16.210Z,16.73
2018-06-05T17:15:44.441Z,13.10
2018-06-05T17:18:12.672Z,14.47
2018-06-05T17:20:40.904Z,15.03
2018-06-05T17:23:09.231Z,18.53
2018-06-05T17:25:37.463Z,14.20
2018-06-05T17:28:05.728Z,15.40
2018-06-05T17:30:33.906Z,24.00
2018-06-05T17:33:02.082Z,12.20
2018-06-05T17:35:30.248Z,16.93
2018-06-05T17:37:58.420Z,20.30
2018-06-05T17:40:27.054Z,18.00
2018-06-05T17:42:55.555Z,14.70
2018-06-05T17:45:23.761Z,12.03
2018-06-05T17:47:52.017Z,16.13
2018-06-05T17:50:20.300Z,13.63
2018-06-05T17:52:50.271Z,10.67
2018-06-05T17:55:20.126Z,9.83
2018-06-05T17:57:48.475Z,9.27
2018-06-05T18:00:17.178Z,8.97
2018-06-05T18:02:46.226Z,8.70
2018-06-05T18:05:15.665Z,8.83
2018-06-05T18:07:44.616Z,6.53
2018-06-05T18:10:13.923Z,11.70
2018-06-05T18:12:43.155Z,6.27
2018-06-05T18:15:12.172Z,8.53
2018-06-05T18:17:41.847Z,6.60
2018-06-05T18:20:11.789Z,12.20
2018-06-05T18:22:40.825Z,9.93
2018-06-05T18:25:10.412Z,3.73
2018-06-05T18:27:40.059Z,4.87
2018-06-05T18:30:08.526Z,8.63
2018-06-05T18:32:37.678Z,6.00
2018-06-05T18:35:06.512Z,7.70
2018-06-05T18:37:34.949Z,6.37
2018-06-05T18:40:03.699Z,4.33
2018-06-05T18:42:32.490Z,4.53
2018-06-05T18:45:01.022Z,8.43
2018-06-05T18:47:29.498Z,4.60
2018-06-05T18:49:58.572Z,4.93
2018-06-05T18:52:27.957Z,5.50
2018-06-05T18:54:56.578Z,6.40
2018-06-05T18:57:25.233Z,6.33
2018-06-05T18:59:54.300Z,4.50
2018-06-05T19:02:23.104Z,6.37
2018-06-05T19:04:51.384Z,3.40
2018-06-05T19:07:19.633Z,4.40
2018-06-05T19:09:47.868Z,4.40
2018-06-05T19:12:16.240Z,6.90
2018-06-05T19:14:44.586Z,3.03
2018-06-05T19:17:12.821Z,5.00
2018-06-05T19:19:40.983Z,6.43
2018-06-05T19:22:09.322Z,2.90
2018-06-05T19:24:37.619Z,3.30
2018-06-05T19:27:05.935Z,2.53
2018-06-05T19:29:34.227Z,5.10
2018-06-05T19:32:02.566Z,5.07
2018-06-05T19:34:30.901Z,3.77
2018-06-05T19:36:59.154Z,7.13
2018-06-05T19:39:27.490Z,5.77
2018-06-05T19:41:55.715Z,8.07
2018-06-05T19:44:24.225Z,3.87
2018-06-05T19:46:53.282Z,9.30
2018-06-05T19:49:22.303Z,11.13
2018-06-05T19:51:50.991Z,4.57
2018-06-05T19:54:19.941Z,7.23
2018-06-05T19:56:48.428Z,8.73
2018-06-05T19:59:17.409Z,2.60
2018-06-05T20:01:46.336Z,4.57
2018-06-05T20:04:14.704Z,12.57
2018-06-05T20:06:43.117Z,4.30
2018-06-05T20:09:11.598Z,3.87
2018-06-05T20:11:39.989Z,4.50
2018-06-05T20:14:08.568Z,4.97
2018-06-05T20:16:37.480Z,5.70
2018-06-05T20:19:05.864Z,8.03
2018-06-05T20:21:34.688Z,4.00
2018-06-05T20:24:02.980Z,5.50
2018-06-05T20:26:31.458Z,4.53
2018-06-05T20:28:59.944Z,3.50
2018-06-05T20:31:28.440Z,4.70
2018-06-05T20:33:57.164Z,4.67
2018-06-05T20:36:25.654Z,4.30
2018-06-05T20:38:53.909Z,5.30
2018-06-05T20:41:22.143Z,5.10
2018-06-05T20:43:50.360Z,6.60
2018-06-05T20:46:18.600Z,5.07
2018-06-05T20:48:46.831Z,5.13
2018-06-05T20:51:15.129Z,4.97
2018-06-05T20:53:43.357Z,3.17
2018-06-05T20:56:11.606Z,6.90
2018-06-05T20:58:39.884Z,7.10
2018-06-05T21:01:08.113Z,3.30
2018-06-05T21:03:36.361Z,2.60
2018-06-05T21:06:04.599Z,2.83
2018-06-05T21:08:33.713Z,4.10
2018-06-05T21:11:02.020Z,4.53
2018-06-05T21:13:30.265Z,3.70
2018-06-05T21:15:58.492Z,4.20
2018-06-05T21:18:26.753Z,4.53
2018-06-05T21:20:54.931Z,5.63
2018-06-05T21:23:23.196Z,2.70
2018-06-05T21:25:51.388Z,3.10
2018-06-05T21:28:19.609Z,3.03
2018-06-05T21:30:47.836Z,5.40
2018-06-05T21:33:16.124Z,4.30
2018-06-05T21:35:44.339Z,3.93
2018-06-05T21:38:12.595Z,4.77
2018-06-05T21:40:40.872Z,3.57
2018-06-05T21:43:09.112Z,4.07
2018-06-05T21:45:37.322Z,4.40
2018-06-05T21:48:05.596Z,2.97
2018-06-05T21:50:33.945Z,5.37
2018-06-05T21:53:02.473Z,3.47
2018-06-05T21:55:30.726Z,5.93
2018-06-05T21:57:58.910Z,6.20
2018-06-05T22:00:27.147Z,4.13
2018-06-05T22:02:55.480Z,13.13
2018-06-05T22:05:23.727Z,6.43
2018-06-05T22:07:52.008Z,6.87
2018-06-05T22:10:20.227Z,7.00
2018-06-05T22:12:48.806Z,4.53
2018-06-05T22:15:17.058Z,5.00
2018-06-05T22:17:45.310Z,6.10
2018-06-05T22:20:13.577Z,5.30
2018-06-05T22:22:41.801Z,3.40
2018-06-05T22:25:10.140Z,9.17
2018-06-05T22:27:38.445Z,5.70
2018-06-05T22:30:07.723Z,3.83
2018-06-05T22:32:35.937Z,8.77
2018-06-05T22:35:04.209Z,7.00
2018-06-05T22:37:32.424Z,4.60
2018-06-05T22:40:00.691Z,6.23
2018-06-05T22:42:28.976Z,4.57
2018-06-05T22:44:57.315Z,7.63
2018-06-05T22:47:25.672Z,5.97
2018-06-05T22:49:53.876Z,4.33
2018-06-05T22:52:22.105Z,4.17
2018-06-05T22:54:50.284Z,9.13
2018-06-05T22:57:18.603Z,6.80
2018-06-05T22:59:46.914Z,5.87
2018-06-05T23:02:15.125Z,4.97
2018-06-05T23:04:43.423Z,4.07
2018-06-05T23:07:11.646Z,4.00
2018-06-05T23:09:39.906Z,4.10
2018-06-05T23:12:08.106Z,5.10
2018-06-05T23:14:36.370Z,4.80
2018-06-05T23:17:04.551Z,3.80
2018-06-05T23:19:32.824Z,4.90
2018-06-05T23:22:01.031Z,6.03
2018-06-05T23:24:29.202Z,2.77
2018-06-05T23:26:57.405Z,4.40
2018-06-05T23:29:25.642Z,4.60
2018-06-05T23:31:53.874Z,3.07
2018-06-05T23:34:22.213Z,8.17
2018-06-05T23:36:50.418Z,4.20
2018-06-05T23:39:18.661Z,10.63
2018-06-05T23:41:46.909Z,4.70
2018-06-05T23:44:15.100Z,4.80
2018-06-05T23:46:43.374Z,7.73
2018-06-05T23:49:11.591Z,6.30
2018-06-05T23:51:39.802Z,5.57
2018-06-05T23:54:08.065Z,4.70
2018-06-05T23:56:36.218Z,5.43
2018-06-05T23:59:04.470Z,4.43
